Middleton, WI (53562)

6:42 AM CST on February 08, 2016 (GMT -0600)
Middleton | | Change Station
CLOSE
Current Station
Airport
Location: Middleton,
Elevation: 928 ft
Nearby Weather Stations

Elev 928 ft 43.12 °N, 89.53 °W | Updated 7 minutes ago

Overcast
Overcast
25 °F
Feels Like 13 °F
N
13
Wind Variable Wind from WNW
Gusts 17 mph

Today
High -- | Low -- °F
--% Chance of Precip.
Yesterday
High -- | Low -- °F
Precip. -- in
Pressure 29.64 in
Visibility 10.0 miles
Clouds Scattered Clouds 900 ft
Overcast 2500 ft
Windchill 13 °F
Dew Point 21 °F
Humidity 86%
Rainfall 0.00 in
Snow Depth Not available.
7:05 AM 5:19 PM
Waning Crescent, 0% visible
METAR KC29 081235Z AUTO 30011G15KT 10SM SCT009 OVC025 M04/M06 A2964 RMK AO1 T10401061
Pressure 29.64 in
Visibility 10.0 miles
Clouds Scattered Clouds 900 ft
Overcast 2500 ft
Windchill 13 °F
Dew Point 21 °F
Humidity 86%
Rainfall 0.00 in
Snow Depth Not available.
7:05 AM 5:19 PM
Waning Crescent, 0% visible
METAR KC29 081235Z AUTO 30011G15KT 10SM SCT009 OVC025 M04/M06 A2964 RMK AO1 T10401061

10-Day Weather Forecast

Almanac

Astronomy

Feb. 08, 2016 Rise Set
Actual Time
Civil Twilight
Nautical Twilight
Astronomical Twilight
Moon
Length of Visible Light
Length of Day
Tomorrow will be .
, % of the Moon is Illuminated

Today's Extremes

State Highs State Lows

Community

WunderPhotos

Upload Photos

1,891,428 photos uploaded!

WunderBlog® & News

Nearby

Air Quality

  Air Quality AQ Index Pollutant
Not available.

Snow Depth

Station Depth Elevation

Earthquake Activity

City Distance Mag. Time & Date
Minimum magnitude displayed is 2.5.

Coastal Water Temperatures

Place Temperature

Stations

Nearby Weather Stations

Station Location Temp. Windchill Dew Point Humidity Wind Precip. Elev Updated Type
                   

Watches & Warnings

There are currently no watches in effect.